KLOR/LOR METAR and TAF weather

Enter ICAO airport designator
Station Type Date Time Source
KLOR METAR 2022/11/30 11:00 UTC NOAA

KLOR 301100Z AUTO 21007KT 9SM OVC009 22/20 A2996 RMK AO2 LTG DSNT NW-NE SLP127 $


Station Type Date Time Source
KLOR Decoded METAR 2022/11/30 11:00 UTC NOAA

Fort Rucker, Lowe Army Heliport, AL, United States (KLOR) 31-21-32N 085-44-54W 93M
Nov 30, 2022 - 06:00 AM EST / 2022.11.30 1100 UTC
Wind: from the SSW (210 degrees) at 8 MPH (7 KT):0
Visibility: 9 mile(s):0
Sky conditions: overcast
Weather: Lightning observed
Temperature: 71 F (22 C)
Dew Point: 68 F (20 C)
Relative Humidity: 88%
Pressure (altimeter): 29.96 in. Hg (1014 hPa)
ob: KLOR 301100Z AUTO 21007KT 9SM OVC009 22/20 A2996 RMK AO2 LTG DSNT NW-NE SLP127
cycle: 11

Station Type Date Time Source
KLOR TAF UTC NOAA

Error!

Example: see airport list